Roberta, Georgia
Current Conditions -  °F | °C
As of 6:55 AM on Monday 22 Dec 2014 (Local Time) from KPXE Reporting Station
Overcast Overcast  
Wind Chill: 50°   Ceiling: 400
Heat Index: 50°   Visibility: 7mi
Dew Point: 48°   Wind: 7mph
Humidity: 92%   Direction: 70°ENE
Pressure: 30.03"   Gusts: NA
Location:  32.72°N, 84.01°W
Report Text: KPXE 221155Z AUTO 07006KT 7SM OVC004 10/09 A3003 RMK AO2 T01020090 10102 20100
Loading
Personal Weather Stations






























Interactive Weather Map New forecast layout! Learn more

10-Day Weather Forecast

Advertisements
Track Severe Weather on mobile